sensor_id;sensor_type;location;lat;lon;timestamp;P1;durP1;ratioP1;P2;durP2;ratioP2
46643;SDS011;32371;51.032;5.816;2022-12-18T00:01:32;16.87;;;9.20;;
46643;SDS011;32371;51.032;5.816;2022-12-18T00:03:59;29.17;;;11.60;;
46643;SDS011;32371;51.032;5.816;2022-12-18T00:06:26;28.00;;;10.03;;
46643;SDS011;32371;51.032;5.816;2022-12-18T00:08:53;27.47;;;10.60;;
46643;SDS011;32371;51.032;5.816;2022-12-18T00:11:20;31.70;;;9.87;;
46643;SDS011;32371;51.032;5.816;2022-12-18T00:13:46;27.27;;;9.93;;
46643;SDS011;32371;51.032;5.816;2022-12-18T00:16:13;24.60;;;10.20;;
46643;SDS011;32371;51.032;5.816;2022-12-18T00:18:42;22.13;;;9.50;;
46643;SDS011;32371;51.032;5.816;2022-12-18T00:21:08;22.53;;;10.03;;
46643;SDS011;32371;51.032;5.816;2022-12-18T00:23:37;20.10;;;8.53;;
46643;SDS011;32371;51.032;5.816;2022-12-18T00:26:04;26.53;;;10.40;;
46643;SDS011;32371;51.032;5.816;2022-12-18T00:28:31;24.27;;;9.17;;
46643;SDS011;32371;51.032;5.816;2022-12-18T00:31:01;27.13;;;11.33;;
46643;SDS011;32371;51.032;5.816;2022-12-18T00:33:27;23.73;;;9.23;;
46643;SDS011;32371;51.032;5.816;2022-12-18T00:35:53;21.53;;;10.03;;
46643;SDS011;32371;51.032;5.816;2022-12-18T00:38:18;29.63;;;9.63;;
46643;SDS011;32371;51.032;5.816;2022-12-18T00:40:43;27.53;;;9.47;;
46643;SDS011;32371;51.032;5.816;2022-12-18T00:43:09;23.10;;;9.83;;
46643;SDS011;32371;51.032;5.816;2022-12-18T00:45:34;18.63;;;8.87;;
46643;SDS011;32371;51.032;5.816;2022-12-18T00:48:00;19.93;;;9.77;;
46643;SDS011;32371;51.032;5.816;2022-12-18T00:50:25;27.37;;;9.67;;
46643;SDS011;32371;51.032;5.816;2022-12-18T00:52:51;26.47;;;10.43;;
46643;SDS011;32371;51.032;5.816;2022-12-18T00:55:16;24.07;;;8.60;;
46643;SDS011;32371;51.032;5.816;2022-12-18T00:57:42;18.87;;;9.73;;
46643;SDS011;32371;51.032;5.816;2022-12-18T01:00:09;21.63;;;9.10;;
46643;SDS011;32371;51.032;5.816;2022-12-18T01:02:37;25.47;;;10.00;;
46643;SDS011;32371;51.032;5.816;2022-12-18T01:05:03;28.07;;;10.27;;
46643;SDS011;32371;51.032;5.816;2022-12-18T01:07:29;26.67;;;10.43;;
46643;SDS011;32371;51.032;5.816;2022-12-18T01:09:54;20.07;;;9.53;;
46643;SDS011;32371;51.032;5.816;2022-12-18T01:12:20;18.23;;;8.83;;
46643;SDS011;32371;51.032;5.816;2022-12-18T01:14:45;23.53;;;9.13;;
46643;SDS011;32371;51.032;5.816;2022-12-18T01:17:10;30.37;;;12.10;;
46643;SDS011;32371;51.032;5.816;2022-12-18T01:19:36;18.10;;;8.23;;
46643;SDS011;32371;51.032;5.816;2022-12-18T01:22:01;28.47;;;10.90;;
46643;SDS011;32371;51.032;5.816;2022-12-18T01:24:27;18.13;;;7.77;;
46643;SDS011;32371;51.032;5.816;2022-12-18T01:26:52;15.27;;;9.57;;
46643;SDS011;32371;51.032;5.816;2022-12-18T01:29:17;19.40;;;7.90;;
46643;SDS011;32371;51.032;5.816;2022-12-18T01:31:43;18.07;;;7.13;;
46643;SDS011;32371;51.032;5.816;2022-12-18T01:34:08;25.57;;;8.60;;
46643;SDS011;32371;51.032;5.816;2022-12-18T01:36:35;18.80;;;8.80;;
46643;SDS011;32371;51.032;5.816;2022-12-18T01:39:04;18.93;;;7.33;;
46643;SDS011;32371;51.032;5.816;2022-12-18T01:41:35;19.13;;;7.27;;
46643;SDS011;32371;51.032;5.816;2022-12-18T01:47:33;17.40;;;8.13;;
46643;SDS011;32371;51.032;5.816;2022-12-18T01:52:43;20.97;;;8.87;;
46643;SDS011;32371;51.032;5.816;2022-12-18T01:55:12;24.47;;;8.17;;
46643;SDS011;32371;51.032;5.816;2022-12-18T01:57:38;14.20;;;6.80;;
46643;SDS011;32371;51.032;5.816;2022-12-18T02:00:07;27.23;;;9.27;;
46643;SDS011;32371;51.032;5.816;2022-12-18T02:02:34;16.67;;;6.83;;
46643;SDS011;32371;51.032;5.816;2022-12-18T02:05:00;20.70;;;7.43;;
46643;SDS011;32371;51.032;5.816;2022-12-18T02:07:29;21.30;;;8.57;;
46643;SDS011;32371;51.032;5.816;2022-12-18T02:12:35;21.20;;;8.30;;
46643;SDS011;32371;51.032;5.816;2022-12-18T02:15:10;21.43;;;7.37;;
46643;SDS011;32371;51.032;5.816;2022-12-18T02:17:52;25.23;;;8.23;;
46643;SDS011;32371;51.032;5.816;2022-12-18T02:20:36;22.73;;;8.70;;
46643;SDS011;32371;51.032;5.816;2022-12-18T02:29:15;18.07;;;7.97;;
46643;SDS011;32371;51.032;5.816;2022-12-18T02:31:40;11.90;;;6.13;;
46643;SDS011;32371;51.032;5.816;2022-12-18T02:34:09;15.50;;;6.53;;
46643;SDS011;32371;51.032;5.816;2022-12-18T02:36:35;17.43;;;7.47;;
46643;SDS011;32371;51.032;5.816;2022-12-18T02:39:03;20.97;;;8.47;;
46643;SDS011;32371;51.032;5.816;2022-12-18T02:41:30;21.47;;;6.53;;
46643;SDS011;32371;51.032;5.816;2022-12-18T02:44:00;15.23;;;7.00;;
46643;SDS011;32371;51.032;5.816;2022-12-18T02:46:28;15.23;;;6.30;;
46643;SDS011;32371;51.032;5.816;2022-12-18T02:49:02;14.27;;;6.03;;
46643;SDS011;32371;51.032;5.816;2022-12-18T02:51:40;17.77;;;6.07;;
46643;SDS011;32371;51.032;5.816;2022-12-18T02:54:10;19.27;;;6.57;;
46643;SDS011;32371;51.032;5.816;2022-12-18T02:56:49;16.13;;;6.23;;
46643;SDS011;32371;51.032;5.816;2022-12-18T02:59:17;15.43;;;6.13;;
46643;SDS011;32371;51.032;5.816;2022-12-18T03:02:06;17.40;;;6.57;;
46643;SDS011;32371;51.032;5.816;2022-12-18T03:04:42;11.50;;;5.00;;
46643;SDS011;32371;51.032;5.816;2022-12-18T03:07:11;12.73;;;5.57;;
46643;SDS011;32371;51.032;5.816;2022-12-18T03:09:44;14.77;;;5.30;;
46643;SDS011;32371;51.032;5.816;2022-12-18T03:14:49;13.83;;;6.23;;
46643;SDS011;32371;51.032;5.816;2022-12-18T03:17:32;16.20;;;6.65;;
46643;SDS011;32371;51.032;5.816;2022-12-18T03:20:00;10.37;;;5.13;;
46643;SDS011;32371;51.032;5.816;2022-12-18T03:22:30;13.40;;;5.47;;
46643;SDS011;32371;51.032;5.816;2022-12-18T03:24:57;14.53;;;5.60;;
46643;SDS011;32371;51.032;5.816;2022-12-18T03:27:24;15.10;;;6.10;;
46643;SDS011;32371;51.032;5.816;2022-12-18T03:30:09;11.20;;;5.40;;
46643;SDS011;32371;51.032;5.816;2022-12-18T03:32:58;14.17;;;4.93;;
46643;SDS011;32371;51.032;5.816;2022-12-18T03:35:30;12.33;;;6.13;;
46643;SDS011;32371;51.032;5.816;2022-12-18T03:37:57;13.03;;;6.10;;
46643;SDS011;32371;51.032;5.816;2022-12-18T03:40:23;13.53;;;6.03;;
46643;SDS011;32371;51.032;5.816;2022-12-18T03:42:59;14.43;;;5.30;;
46643;SDS011;32371;51.032;5.816;2022-12-18T03:45:34;15.53;;;5.73;;
46643;SDS011;32371;51.032;5.816;2022-12-18T03:55:36;12.60;;;6.07;;
46643;SDS011;32371;51.032;5.816;2022-12-18T03:58:02;9.00;;;4.70;;
46643;SDS011;32371;51.032;5.816;2022-12-18T04:00:28;15.57;;;5.80;;
46643;SDS011;32371;51.032;5.816;2022-12-18T04:02:55;10.87;;;4.10;;
46643;SDS011;32371;51.032;5.816;2022-12-18T04:05:22;17.97;;;5.20;;
46643;SDS011;32371;51.032;5.816;2022-12-18T04:07:49;9.47;;;5.33;;
46643;SDS011;32371;51.032;5.816;2022-12-18T04:10:15;11.70;;;4.73;;
46643;SDS011;32371;51.032;5.816;2022-12-18T04:12:41;8.83;;;4.73;;
46643;SDS011;32371;51.032;5.816;2022-12-18T04:15:08;19.43;;;5.33;;
46643;SDS011;32371;51.032;5.816;2022-12-18T04:17:34;13.97;;;4.67;;
46643;SDS011;32371;51.032;5.816;2022-12-18T04:19:59;7.40;;;4.20;;
46643;SDS011;32371;51.032;5.816;2022-12-18T04:22:24;7.23;;;4.20;;
46643;SDS011;32371;51.032;5.816;2022-12-18T04:24:50;15.03;;;4.73;;
46643;SDS011;32371;51.032;5.816;2022-12-18T04:27:15;12.70;;;5.30;;
46643;SDS011;32371;51.032;5.816;2022-12-18T04:29:40;12.00;;;4.73;;
46643;SDS011;32371;51.032;5.816;2022-12-18T04:32:06;7.57;;;4.47;;
46643;SDS011;32371;51.032;5.816;2022-12-18T04:34:32;19.37;;;5.13;;
46643;SDS011;32371;51.032;5.816;2022-12-18T04:36:57;10.17;;;5.00;;
46643;SDS011;32371;51.032;5.816;2022-12-18T04:39:23;12.47;;;4.33;;
46643;SDS011;32371;51.032;5.816;2022-12-18T04:41:48;13.97;;;4.73;;
46643;SDS011;32371;51.032;5.816;2022-12-18T04:44:14;8.93;;;4.57;;
46643;SDS011;32371;51.032;5.816;2022-12-18T04:46:39;6.57;;;4.40;;
46643;SDS011;32371;51.032;5.816;2022-12-18T04:49:05;17.83;;;4.47;;
46643;SDS011;32371;51.032;5.816;2022-12-18T04:51:30;11.03;;;4.97;;
46643;SDS011;32371;51.032;5.816;2022-12-18T04:53:55;10.00;;;4.13;;
46643;SDS011;32371;51.032;5.816;2022-12-18T04:56:21;11.90;;;5.00;;
46643;SDS011;32371;51.032;5.816;2022-12-18T04:58:46;16.03;;;4.90;;
46643;SDS011;32371;51.032;5.816;2022-12-18T05:01:12;8.47;;;4.13;;
46643;SDS011;32371;51.032;5.816;2022-12-18T05:03:39;10.83;;;4.70;;
46643;SDS011;32371;51.032;5.816;2022-12-18T05:06:05;7.87;;;5.13;;
46643;SDS011;32371;51.032;5.816;2022-12-18T05:08:31;12.17;;;5.27;;
46643;SDS011;32371;51.032;5.816;2022-12-18T05:11:04;12.13;;;4.60;;
46643;SDS011;32371;51.032;5.816;2022-12-18T05:13:34;9.73;;;4.80;;
46643;SDS011;32371;51.032;5.816;2022-12-18T05:16:00;12.53;;;4.67;;
46643;SDS011;32371;51.032;5.816;2022-12-18T05:18:26;11.47;;;5.53;;
46643;SDS011;32371;51.032;5.816;2022-12-18T05:20:51;10.00;;;4.30;;
46643;SDS011;32371;51.032;5.816;2022-12-18T05:23:18;12.37;;;4.97;;
46643;SDS011;32371;51.032;5.816;2022-12-18T05:25:47;9.40;;;4.23;;
46643;SDS011;32371;51.032;5.816;2022-12-18T05:28:15;11.90;;;5.00;;
46643;SDS011;32371;51.032;5.816;2022-12-18T05:30:41;12.07;;;5.60;;
46643;SDS011;32371;51.032;5.816;2022-12-18T05:33:06;15.40;;;5.23;;
46643;SDS011;32371;51.032;5.816;2022-12-18T05:35:31;13.40;;;4.93;;
46643;SDS011;32371;51.032;5.816;2022-12-18T05:37:57;11.23;;;5.07;;
46643;SDS011;32371;51.032;5.816;2022-12-18T05:40:22;9.43;;;5.60;;
46643;SDS011;32371;51.032;5.816;2022-12-18T05:42:47;16.03;;;5.30;;
46643;SDS011;32371;51.032;5.816;2022-12-18T05:45:13;13.17;;;5.73;;
46643;SDS011;32371;51.032;5.816;2022-12-18T05:47:38;12.20;;;5.60;;
46643;SDS011;32371;51.032;5.816;2022-12-18T05:50:04;14.73;;;4.70;;
46643;SDS011;32371;51.032;5.816;2022-12-18T05:52:30;10.17;;;5.27;;
46643;SDS011;32371;51.032;5.816;2022-12-18T05:54:55;7.77;;;5.10;;
46643;SDS011;32371;51.032;5.816;2022-12-18T05:57:21;11.53;;;4.63;;
46643;SDS011;32371;51.032;5.816;2022-12-18T05:59:46;13.97;;;5.83;;
46643;SDS011;32371;51.032;5.816;2022-12-18T06:02:11;10.67;;;4.43;;
46643;SDS011;32371;51.032;5.816;2022-12-18T06:04:37;20.77;;;5.80;;
46643;SDS011;32371;51.032;5.816;2022-12-18T06:07:02;15.87;;;5.87;;
46643;SDS011;32371;51.032;5.816;2022-12-18T06:09:28;20.27;;;6.37;;
46643;SDS011;32371;51.032;5.816;2022-12-18T06:11:54;11.57;;;4.90;;
46643;SDS011;32371;51.032;5.816;2022-12-18T06:14:19;11.43;;;5.67;;
46643;SDS011;32371;51.032;5.816;2022-12-18T06:16:44;13.90;;;6.97;;
46643;SDS011;32371;51.032;5.816;2022-12-18T06:19:12;9.87;;;5.37;;
46643;SDS011;32371;51.032;5.816;2022-12-18T06:21:39;11.73;;;5.43;;
46643;SDS011;32371;51.032;5.816;2022-12-18T06:24:05;13.20;;;6.27;;
46643;SDS011;32371;51.032;5.816;2022-12-18T06:26:30;10.87;;;5.23;;
46643;SDS011;32371;51.032;5.816;2022-12-18T06:28:56;13.17;;;4.73;;
46643;SDS011;32371;51.032;5.816;2022-12-18T06:31:21;10.83;;;4.90;;
46643;SDS011;32371;51.032;5.816;2022-12-18T06:33:47;11.93;;;4.93;;
46643;SDS011;32371;51.032;5.816;2022-12-18T06:36:13;14.47;;;5.80;;
46643;SDS011;32371;51.032;5.816;2022-12-18T06:38:40;15.10;;;6.10;;
46643;SDS011;32371;51.032;5.816;2022-12-18T06:41:07;12.87;;;5.17;;
46643;SDS011;32371;51.032;5.816;2022-12-18T06:43:37;15.17;;;5.10;;
46643;SDS011;32371;51.032;5.816;2022-12-18T06:46:02;8.70;;;5.03;;
46643;SDS011;32371;51.032;5.816;2022-12-18T06:48:29;14.50;;;4.70;;
46643;SDS011;32371;51.032;5.816;2022-12-18T06:50:54;8.87;;;4.30;;
46643;SDS011;32371;51.032;5.816;2022-12-18T06:53:19;15.43;;;5.23;;
46643;SDS011;32371;51.032;5.816;2022-12-18T06:55:45;11.93;;;5.37;;
46643;SDS011;32371;51.032;5.816;2022-12-18T06:58:10;11.47;;;4.97;;
46643;SDS011;32371;51.032;5.816;2022-12-18T07:00:36;15.17;;;5.70;;
46643;SDS011;32371;51.032;5.816;2022-12-18T07:03:01;19.83;;;5.97;;
46643;SDS011;32371;51.032;5.816;2022-12-18T07:05:26;14.43;;;6.10;;
46643;SDS011;32371;51.032;5.816;2022-12-18T07:07:52;11.00;;;5.10;;
46643;SDS011;32371;51.032;5.816;2022-12-18T07:10:17;14.70;;;5.63;;
46643;SDS011;32371;51.032;5.816;2022-12-18T07:12:43;14.10;;;5.03;;
46643;SDS011;32371;51.032;5.816;2022-12-18T07:15:08;14.87;;;5.60;;
46643;SDS011;32371;51.032;5.816;2022-12-18T07:17:34;13.17;;;6.23;;
46643;SDS011;32371;51.032;5.816;2022-12-18T07:19:59;18.07;;;5.83;;
46643;SDS011;32371;51.032;5.816;2022-12-18T07:22:25;12.27;;;5.13;;
46643;SDS011;32371;51.032;5.816;2022-12-18T07:24:51;12.63;;;5.30;;
46643;SDS011;32371;51.032;5.816;2022-12-18T07:27:16;16.93;;;5.27;;
46643;SDS011;32371;51.032;5.816;2022-12-18T07:29:41;11.53;;;5.37;;
46643;SDS011;32371;51.032;5.816;2022-12-18T07:32:07;16.57;;;6.10;;
46643;SDS011;32371;51.032;5.816;2022-12-18T07:34:33;15.30;;;7.07;;
46643;SDS011;32371;51.032;5.816;2022-12-18T07:36:59;19.17;;;6.43;;
46643;SDS011;32371;51.032;5.816;2022-12-18T07:39:24;12.43;;;6.03;;
46643;SDS011;32371;51.032;5.816;2022-12-18T07:41:49;14.60;;;6.67;;
46643;SDS011;32371;51.032;5.816;2022-12-18T07:44:33;13.87;;;6.67;;
46643;SDS011;32371;51.032;5.816;2022-12-18T07:46:59;14.63;;;6.03;;
46643;SDS011;32371;51.032;5.816;2022-12-18T07:49:24;13.70;;;6.37;;
46643;SDS011;32371;51.032;5.816;2022-12-18T07:51:50;16.73;;;6.30;;
46643;SDS011;32371;51.032;5.816;2022-12-18T07:54:15;14.67;;;6.73;;
46643;SDS011;32371;51.032;5.816;2022-12-18T07:56:40;12.80;;;5.63;;
46643;SDS011;32371;51.032;5.816;2022-12-18T07:59:06;13.93;;;5.80;;
46643;SDS011;32371;51.032;5.816;2022-12-18T08:01:31;15.03;;;5.57;;
46643;SDS011;32371;51.032;5.816;2022-12-18T08:03:58;23.03;;;7.30;;
46643;SDS011;32371;51.032;5.816;2022-12-18T08:06:23;17.63;;;7.70;;
46643;SDS011;32371;51.032;5.816;2022-12-18T08:08:49;11.67;;;5.77;;
46643;SDS011;32371;51.032;5.816;2022-12-18T08:11:16;18.90;;;6.17;;
46643;SDS011;32371;51.032;5.816;2022-12-18T08:13:41;19.17;;;7.23;;
46643;SDS011;32371;51.032;5.816;2022-12-18T08:16:07;16.83;;;6.37;;
46643;SDS011;32371;51.032;5.816;2022-12-18T08:18:33;14.10;;;5.80;;
46643;SDS011;32371;51.032;5.816;2022-12-18T08:21:15;18.30;;;7.57;;
46643;SDS011;32371;51.032;5.816;2022-12-18T08:26:08;11.67;;;5.80;;
46643;SDS011;32371;51.032;5.816;2022-12-18T08:28:34;19.83;;;6.57;;
46643;SDS011;32371;51.032;5.816;2022-12-18T08:31:00;15.30;;;6.23;;
46643;SDS011;32371;51.032;5.816;2022-12-18T08:33:26;17.83;;;6.80;;
46643;SDS011;32371;51.032;5.816;2022-12-18T08:35:51;19.40;;;6.40;;
46643;SDS011;32371;51.032;5.816;2022-12-18T08:38:17;14.27;;;5.73;;
46643;SDS011;32371;51.032;5.816;2022-12-18T08:40:42;15.23;;;7.43;;
46643;SDS011;32371;51.032;5.816;2022-12-18T08:43:09;20.00;;;6.47;;
46643;SDS011;32371;51.032;5.816;2022-12-18T08:45:54;18.87;;;6.50;;
46643;SDS011;32371;51.032;5.816;2022-12-18T08:48:19;16.80;;;6.60;;
46643;SDS011;32371;51.032;5.816;2022-12-18T08:50:58;13.57;;;5.93;;
46643;SDS011;32371;51.032;5.816;2022-12-18T08:53:24;15.03;;;5.27;;
46643;SDS011;32371;51.032;5.816;2022-12-18T08:55:50;15.33;;;6.20;;
46643;SDS011;32371;51.032;5.816;2022-12-18T08:58:15;13.23;;;5.87;;
46643;SDS011;32371;51.032;5.816;2022-12-18T09:00:40;15.18;;;7.07;;
46643;SDS011;32371;51.032;5.816;2022-12-18T09:03:10;12.48;;;6.10;;
46643;SDS011;32371;51.032;5.816;2022-12-18T09:05:39;21.48;;;7.10;;
46643;SDS011;32371;51.032;5.816;2022-12-18T09:08:05;19.20;;;7.73;;
46643;SDS011;32371;51.032;5.816;2022-12-18T09:10:30;13.83;;;5.57;;
46643;SDS011;32371;51.032;5.816;2022-12-18T09:12:56;18.63;;;6.15;;
46643;SDS011;32371;51.032;5.816;2022-12-18T09:15:22;13.10;;;5.80;;
46643;SDS011;32371;51.032;5.816;2022-12-18T09:17:47;16.83;;;6.27;;
46643;SDS011;32371;51.032;5.816;2022-12-18T09:20:14;17.40;;;7.20;;
46643;SDS011;32371;51.032;5.816;2022-12-18T09:22:40;10.27;;;5.20;;
46643;SDS011;32371;51.032;5.816;2022-12-18T09:25:06;18.50;;;6.30;;
46643;SDS011;32371;51.032;5.816;2022-12-18T09:27:33;12.63;;;5.43;;
46643;SDS011;32371;51.032;5.816;2022-12-18T09:29:58;16.08;;;6.78;;
46643;SDS011;32371;51.032;5.816;2022-12-18T09:32:24;14.73;;;5.97;;
46643;SDS011;32371;51.032;5.816;2022-12-18T09:34:49;14.57;;;7.22;;
46643;SDS011;32371;51.032;5.816;2022-12-18T09:37:15;17.85;;;7.10;;
46643;SDS011;32371;51.032;5.816;2022-12-18T09:39:40;18.67;;;7.00;;
46643;SDS011;32371;51.032;5.816;2022-12-18T09:42:05;14.70;;;6.78;;
46643;SDS011;32371;51.032;5.816;2022-12-18T09:44:36;16.55;;;7.93;;
46643;SDS011;32371;51.032;5.816;2022-12-18T09:49:34;18.38;;;6.45;;
46643;SDS011;32371;51.032;5.816;2022-12-18T09:52:05;12.27;;;6.13;;
46643;SDS011;32371;51.032;5.816;2022-12-18T09:54:42;20.33;;;8.50;;
46643;SDS011;32371;51.032;5.816;2022-12-18T09:57:17;16.48;;;7.80;;
46643;SDS011;32371;51.032;5.816;2022-12-18T09:59:46;18.75;;;7.05;;
46643;SDS011;32371;51.032;5.816;2022-12-18T10:02:22;18.15;;;6.70;;
46643;SDS011;32371;51.032;5.816;2022-12-18T10:04:59;23.40;;;6.85;;
46643;SDS011;32371;51.032;5.816;2022-12-18T10:10:20;16.60;;;7.07;;
46643;SDS011;32371;51.032;5.816;2022-12-18T10:20:59;11.68;;;5.78;;
46643;SDS011;32371;51.032;5.816;2022-12-18T10:26:15;15.48;;;6.38;;
46643;SDS011;32371;51.032;5.816;2022-12-18T10:28:41;14.52;;;5.95;;
46643;SDS011;32371;51.032;5.816;2022-12-18T10:31:07;19.83;;;7.03;;
46643;SDS011;32371;51.032;5.816;2022-12-18T10:33:40;20.75;;;6.85;;
46643;SDS011;32371;51.032;5.816;2022-12-18T10:36:06;13.90;;;6.43;;
46643;SDS011;32371;51.032;5.816;2022-12-18T10:38:32;13.50;;;6.63;;
46643;SDS011;32371;51.032;5.816;2022-12-18T10:43:33;18.60;;;7.30;;
46643;SDS011;32371;51.032;5.816;2022-12-18T10:48:27;17.38;;;6.22;;
46643;SDS011;32371;51.032;5.816;2022-12-18T10:50:53;19.77;;;6.68;;
46643;SDS011;32371;51.032;5.816;2022-12-18T10:53:22;15.73;;;6.25;;
46643;SDS011;32371;51.032;5.816;2022-12-18T10:55:49;16.30;;;6.32;;
46643;SDS011;32371;51.032;5.816;2022-12-18T10:58:29;24.80;;;7.28;;
46643;SDS011;32371;51.032;5.816;2022-12-18T11:01:12;13.70;;;5.93;;
46643;SDS011;32371;51.032;5.816;2022-12-18T11:08:39;14.70;;;6.57;;
46643;SDS011;32371;51.032;5.816;2022-12-18T11:11:17;16.70;;;6.88;;
46643;SDS011;32371;51.032;5.816;2022-12-18T11:13:54;16.30;;;7.22;;
46643;SDS011;32371;51.032;5.816;2022-12-18T11:16:31;18.88;;;7.20;;
46643;SDS011;32371;51.032;5.816;2022-12-18T11:21:41;13.50;;;6.82;;
46643;SDS011;32371;51.032;5.816;2022-12-18T11:24:07;17.23;;;6.72;;
46643;SDS011;32371;51.032;5.816;2022-12-18T11:26:48;14.23;;;6.45;;
46643;SDS011;32371;51.032;5.816;2022-12-18T11:29:18;18.08;;;6.63;;
46643;SDS011;32371;51.032;5.816;2022-12-18T11:31:48;15.98;;;6.10;;
46643;SDS011;32371;51.032;5.816;2022-12-18T11:34:27;12.27;;;5.85;;
46643;SDS011;32371;51.032;5.816;2022-12-18T11:36:55;21.35;;;8.23;;
46643;SDS011;32371;51.032;5.816;2022-12-18T11:39:22;22.17;;;7.90;;
46643;SDS011;32371;51.032;5.816;2022-12-18T11:42:02;20.02;;;6.78;;
46643;SDS011;32371;51.032;5.816;2022-12-18T11:49:39;18.08;;;6.95;;
46643;SDS011;32371;51.032;5.816;2022-12-18T11:52:25;20.27;;;7.95;;
46643;SDS011;32371;51.032;5.816;2022-12-18T11:54:55;17.80;;;6.40;;
46643;SDS011;32371;51.032;5.816;2022-12-18T12:05:28;15.13;;;6.35;;
46643;SDS011;32371;51.032;5.816;2022-12-18T12:16:25;22.27;;;7.45;;
46643;SDS011;32371;51.032;5.816;2022-12-18T12:22:34;17.77;;;7.68;;
46643;SDS011;32371;51.032;5.816;2022-12-18T12:30:32;22.92;;;6.90;;
46643;SDS011;32371;51.032;5.816;2022-12-18T12:38:59;18.77;;;7.55;;
46643;SDS011;32371;51.032;5.816;2022-12-18T12:41:27;22.83;;;7.43;;
46643;SDS011;32371;51.032;5.816;2022-12-18T12:44:17;20.20;;;7.55;;
46643;SDS011;32371;51.032;5.816;2022-12-18T12:46:45;19.75;;;7.47;;
46643;SDS011;32371;51.032;5.816;2022-12-18T12:49:12;15.00;;;7.00;;
46643;SDS011;32371;51.032;5.816;2022-12-18T12:51:41;21.88;;;7.70;;
46643;SDS011;32371;51.032;5.816;2022-12-18T12:54:15;20.90;;;7.50;;
46643;SDS011;32371;51.032;5.816;2022-12-18T12:56:50;16.77;;;6.75;;
46643;SDS011;32371;51.032;5.816;2022-12-18T13:02:20;16.80;;;7.40;;
46643;SDS011;32371;51.032;5.816;2022-12-18T13:07:26;16.85;;;7.90;;
46643;SDS011;32371;51.032;5.816;2022-12-18T13:12:55;19.35;;;7.32;;
46643;SDS011;32371;51.032;5.816;2022-12-18T13:15:26;21.48;;;7.75;;
46643;SDS011;32371;51.032;5.816;2022-12-18T13:21:19;15.80;;;6.65;;
46643;SDS011;32371;51.032;5.816;2022-12-18T13:25:54;16.98;;;7.57;;
46643;SDS011;32371;51.032;5.816;2022-12-18T13:30:56;17.58;;;7.75;;
46643;SDS011;32371;51.032;5.816;2022-12-18T13:35:52;21.63;;;7.70;;
46643;SDS011;32371;51.032;5.816;2022-12-18T13:43:22;17.70;;;8.23;;
46643;SDS011;32371;51.032;5.816;2022-12-18T13:46:16;18.83;;;6.82;;
46643;SDS011;32371;51.032;5.816;2022-12-18T13:49:06;17.55;;;8.18;;
46643;SDS011;32371;51.032;5.816;2022-12-18T13:51:49;17.73;;;6.72;;
46643;SDS011;32371;51.032;5.816;2022-12-18T13:54:30;18.35;;;7.35;;
46643;SDS011;32371;51.032;5.816;2022-12-18T13:56:58;17.43;;;7.80;;
46643;SDS011;32371;51.032;5.816;2022-12-18T13:59:33;16.35;;;6.93;;
46643;SDS011;32371;51.032;5.816;2022-12-18T14:02:04;17.27;;;7.10;;
46643;SDS011;32371;51.032;5.816;2022-12-18T14:04:40;19.40;;;7.00;;
46643;SDS011;32371;51.032;5.816;2022-12-18T14:07:12;18.73;;;7.10;;
46643;SDS011;32371;51.032;5.816;2022-12-18T14:09:46;16.27;;;6.60;;
46643;SDS011;32371;51.032;5.816;2022-12-18T14:12:20;14.88;;;6.80;;
46643;SDS011;32371;51.032;5.816;2022-12-18T14:15:21;13.82;;;6.80;;
46643;SDS011;32371;51.032;5.816;2022-12-18T14:17:49;13.43;;;7.50;;
46643;SDS011;32371;51.032;5.816;2022-12-18T14:20:18;13.88;;;5.78;;
46643;SDS011;32371;51.032;5.816;2022-12-18T14:22:45;14.70;;;6.45;;
46643;SDS011;32371;51.032;5.816;2022-12-18T14:25:15;19.92;;;6.85;;
46643;SDS011;32371;51.032;5.816;2022-12-18T14:27:53;16.90;;;7.70;;
46643;SDS011;32371;51.032;5.816;2022-12-18T14:30:31;18.23;;;6.82;;
46643;SDS011;32371;51.032;5.816;2022-12-18T14:35:27;19.45;;;7.15;;
46643;SDS011;32371;51.032;5.816;2022-12-18T14:37:53;16.75;;;6.68;;
46643;SDS011;32371;51.032;5.816;2022-12-18T14:40:18;17.70;;;6.75;;
46643;SDS011;32371;51.032;5.816;2022-12-18T14:42:44;15.68;;;6.93;;
46643;SDS011;32371;51.032;5.816;2022-12-18T14:47:58;17.35;;;7.47;;
46643;SDS011;32371;51.032;5.816;2022-12-18T14:50:23;18.30;;;6.53;;
46643;SDS011;32371;51.032;5.816;2022-12-18T14:52:49;21.30;;;7.63;;
46643;SDS011;32371;51.032;5.816;2022-12-18T14:55:16;16.65;;;7.82;;
46643;SDS011;32371;51.032;5.816;2022-12-18T14:57:42;15.25;;;6.45;;
46643;SDS011;32371;51.032;5.816;2022-12-18T15:00:16;15.88;;;7.03;;
46643;SDS011;32371;51.032;5.816;2022-12-18T15:02:45;19.75;;;8.05;;
46643;SDS011;32371;51.032;5.816;2022-12-18T15:05:19;20.27;;;6.90;;
46643;SDS011;32371;51.032;5.816;2022-12-18T15:07:54;23.45;;;8.05;;
46643;SDS011;32371;51.032;5.816;2022-12-18T15:20:25;16.05;;;6.65;;
46643;SDS011;32371;51.032;5.816;2022-12-18T15:22:50;19.58;;;7.32;;
46643;SDS011;32371;51.032;5.816;2022-12-18T15:25:31;20.13;;;7.90;;
46643;SDS011;32371;51.032;5.816;2022-12-18T15:27:57;21.05;;;6.68;;
46643;SDS011;32371;51.032;5.816;2022-12-18T15:30:24;12.93;;;6.78;;
46643;SDS011;32371;51.032;5.816;2022-12-18T15:32:50;19.75;;;6.32;;
46643;SDS011;32371;51.032;5.816;2022-12-18T15:35:23;16.92;;;7.82;;
46643;SDS011;32371;51.032;5.816;2022-12-18T15:37:50;18.95;;;7.70;;
46643;SDS011;32371;51.032;5.816;2022-12-18T15:40:17;17.30;;;7.20;;
46643;SDS011;32371;51.032;5.816;2022-12-18T15:42:44;17.67;;;8.07;;
46643;SDS011;32371;51.032;5.816;2022-12-18T15:45:28;15.35;;;7.50;;
46643;SDS011;32371;51.032;5.816;2022-12-18T15:47:54;18.85;;;7.53;;
46643;SDS011;32371;51.032;5.816;2022-12-18T15:50:19;16.77;;;7.50;;
46643;SDS011;32371;51.032;5.816;2022-12-18T15:52:45;27.73;;;9.80;;
46643;SDS011;32371;51.032;5.816;2022-12-18T15:55:13;13.18;;;7.28;;
46643;SDS011;32371;51.032;5.816;2022-12-18T15:58:14;18.90;;;7.87;;
46643;SDS011;32371;51.032;5.816;2022-12-18T16:00:40;14.85;;;7.15;;
46643;SDS011;32371;51.032;5.816;2022-12-18T16:03:05;20.60;;;8.80;;
46643;SDS011;32371;51.032;5.816;2022-12-18T16:05:31;22.17;;;8.63;;
46643;SDS011;32371;51.032;5.816;2022-12-18T16:07:57;17.90;;;7.13;;
46643;SDS011;32371;51.032;5.816;2022-12-18T16:10:23;20.27;;;7.22;;
46643;SDS011;32371;51.032;5.816;2022-12-18T16:12:49;19.08;;;7.78;;
46643;SDS011;32371;51.032;5.816;2022-12-18T16:15:15;19.45;;;7.85;;
46643;SDS011;32371;51.032;5.816;2022-12-18T16:17:41;19.63;;;8.32;;
46643;SDS011;32371;51.032;5.816;2022-12-18T16:20:12;16.63;;;7.88;;
46643;SDS011;32371;51.032;5.816;2022-12-18T16:22:41;23.25;;;7.80;;
46643;SDS011;32371;51.032;5.816;2022-12-18T16:25:20;25.42;;;8.77;;
46643;SDS011;32371;51.032;5.816;2022-12-18T16:27:47;25.00;;;7.18;;
46643;SDS011;32371;51.032;5.816;2022-12-18T16:30:13;22.50;;;8.05;;
46643;SDS011;32371;51.032;5.816;2022-12-18T16:32:43;20.23;;;8.27;;
46643;SDS011;32371;51.032;5.816;2022-12-18T16:35:09;21.38;;;9.02;;
46643;SDS011;32371;51.032;5.816;2022-12-18T16:37:39;19.60;;;7.80;;
46643;SDS011;32371;51.032;5.816;2022-12-18T16:40:05;16.50;;;7.38;;
46643;SDS011;32371;51.032;5.816;2022-12-18T16:42:34;21.42;;;7.68;;
46643;SDS011;32371;51.032;5.816;2022-12-18T16:45:00;20.77;;;8.43;;
46643;SDS011;32371;51.032;5.816;2022-12-18T16:47:25;14.55;;;8.20;;
46643;SDS011;32371;51.032;5.816;2022-12-18T16:49:50;24.55;;;9.25;;
46643;SDS011;32371;51.032;5.816;2022-12-18T16:52:17;17.98;;;7.60;;
46643;SDS011;32371;51.032;5.816;2022-12-18T16:54:43;18.58;;;8.20;;
46643;SDS011;32371;51.032;5.816;2022-12-18T16:57:09;20.92;;;7.85;;